Inebolu — 9HA4359 — position and weather

sailwx.info

Track history (hours):
 
Tides and Currents Weather Stations Pressure Air Temp Water Temp Dewpoint Dewpoint Depression Visibility Wind Speed Wind Dir Waves Ship Positions

Inebolu

Last reported at 2018-May-27 18:52 UTC. Time now 2018-May-28 09:31 UTC.
Position N 37°39' E 023°46'.

Length 103 m; draft 5.9 m.

Type: Ship. MMSI: 249732000.

Date/timePositionNaut miles runAvg speedWind from/ knotsBaromVisibWave heightAir tempDewpointWater temp
2018-May-27 18:52N 37°39' E 023°46'410.8
2018-May-27 18:28N 37°42' E 023°42'612.1
2018-May-27 18:00N 37°47' E 023°38'611.0
2018-May-27 17:30N 37°50' E 023°32'611.7
2018-May-27 17:00N 37°51' E 023°25'611.7
2018-May-27 16:30N 37°52' E 023°18'611.8
2018-May-27 16:00N 37°53' E 023°10'611.8
2018-May-27 15:30N 37°54' E 023°03'3 6.3
2018-May-27 14:58N 37°56' E 022°59'2 3.9
2018-May-27 14:30N 37°57' E 022°58'2 4.4
2018-May-27 14:00N 37°58' E 022°55'5 9.9
2018-May-27 13:30N 38°01' E 022°50'611.5
2018-May-27 13:00N 38°04' E 022°44'612.1
2018-May-27 12:29N 38°07' E 022°37'  
2018-May-23 11:12N 44°14' E 013°10'312.6
2018-May-23 11:00N 44°17' E 013°08'3112.6
2018-May-23 08:30N 44°29' E 012°28'  
Track history (hours):
 
Tides and Currents Weather Stations Pressure Air Temp Water Temp Dewpoint Dewpoint Depression Visibility Wind Speed Wind Dir Waves Ship Positions

Inebolu

Last reported at 2018-May-27 18:52 UTC. Time now 2018-May-28 09:31 UTC.
Position N 37°39' E 023°46'.

Length 103 m; draft 5.9 m.

Type: Ship. MMSI: 249732000.

Date/timePositionNaut miles runAvg speedWind from/ knotsBaromVisibWave heightAir tempDewpointWater temp
2018-May-27 18:52N 37°39' E 023°46'410.8
2018-May-27 18:28N 37°42' E 023°42'612.1
2018-May-27 18:00N 37°47' E 023°38'611.0
2018-May-27 17:30N 37°50' E 023°32'611.7
2018-May-27 17:00N 37°51' E 023°25'611.7
2018-May-27 16:30N 37°52' E 023°18'611.8
2018-May-27 16:00N 37°53' E 023°10'611.8
2018-May-27 15:30N 37°54' E 023°03'3 6.3
2018-May-27 14:58N 37°56' E 022°59'2 3.9
2018-May-27 14:30N 37°57' E 022°58'2 4.4
2018-May-27 14:00N 37°58' E 022°55'5 9.9
2018-May-27 13:30N 38°01' E 022°50'611.5
2018-May-27 13:00N 38°04' E 022°44'612.1
2018-May-27 12:29N 38°07' E 022°37'  
2018-May-23 11:12N 44°14' E 013°10'312.6
2018-May-23 11:00N 44°17' E 013°08'3112.6
2018-May-23 08:30N 44°29' E 012°28'  

Dump ship's entire track history